createdAt,value
2022-11-24T00:01:13.270Z,94.27
2022-11-24T00:03:42.615Z,96.27
2022-11-24T00:06:12.141Z,95.34
2022-11-24T00:08:42.467Z,96.31
2022-11-24T00:11:12.396Z,97.35
2022-11-24T00:13:40.337Z,96.44
2022-11-24T00:16:10.420Z,95.29
2022-11-24T00:18:38.243Z,96.28
2022-11-24T00:21:07.810Z,97.08
2022-11-24T00:23:36.087Z,97.95
2022-11-24T00:26:08.829Z,99.39
2022-11-24T00:28:37.779Z,98.36
2022-11-24T00:31:17.196Z,100.00
2022-11-24T00:33:46.160Z,99.83
2022-11-24T00:36:15.997Z,99.57
2022-11-24T00:38:44.158Z,99.36
2022-11-24T00:41:12.114Z,98.67
2022-11-24T00:43:39.843Z,99.94
2022-11-24T00:46:07.674Z,100.00
2022-11-24T00:48:35.551Z,98.88
2022-11-24T00:51:06.014Z,99.83
2022-11-24T00:53:35.926Z,100.00
2022-11-24T00:56:04.530Z,100.00
2022-11-24T00:58:33.196Z,100.00
2022-11-24T01:01:03.724Z,99.86
2022-11-24T01:03:31.575Z,99.76
2022-11-24T01:06:04.064Z,99.30
2022-11-24T01:08:31.773Z,99.02
2022-11-24T01:11:10.056Z,97.86
2022-11-24T01:13:37.965Z,98.91
2022-11-24T01:16:06.417Z,100.00
2022-11-24T01:18:34.101Z,98.81
2022-11-24T01:21:09.851Z,97.35
2022-11-24T01:23:38.137Z,99.73
2022-11-24T01:26:07.196Z,99.04
2022-11-24T01:28:38.574Z,99.62
2022-11-24T01:31:10.636Z,97.87
2022-11-24T01:33:38.826Z,97.53
2022-11-24T01:36:07.565Z,97.94
2022-11-24T01:38:35.298Z,96.08
2022-11-24T01:41:04.805Z,96.07
2022-11-24T01:43:33.054Z,97.33
2022-11-24T01:46:07.651Z,97.04
2022-11-24T01:48:39.440Z,97.47
2022-11-24T01:51:10.900Z,97.91
2022-11-24T01:53:41.608Z,97.89
2022-11-24T01:56:10.445Z,96.81
2022-11-24T01:58:39.423Z,96.16
2022-11-24T02:01:09.543Z,97.30
2022-11-24T02:03:40.455Z,97.25
2022-11-24T02:06:12.495Z,96.26
2022-11-24T02:08:46.148Z,95.45
2022-11-24T02:11:14.430Z,96.24
2022-11-24T02:13:43.497Z,95.45
2022-11-24T02:16:13.735Z,95.19
2022-11-24T02:18:43.225Z,94.92
2022-11-24T02:21:12.651Z,95.75
2022-11-24T02:23:46.015Z,95.46
2022-11-24T02:26:22.415Z,95.35
2022-11-24T02:28:51.848Z,93.67
2022-11-24T02:31:19.920Z,94.35
2022-11-24T02:33:49.470Z,94.23
2022-11-24T02:36:17.293Z,95.08
2022-11-24T02:38:45.025Z,96.05
2022-11-24T02:41:16.171Z,99.18
2022-11-24T02:43:48.033Z,95.69
2022-11-24T02:46:17.198Z,96.18
2022-11-24T02:48:45.083Z,97.05
2022-11-24T02:51:12.969Z,95.27
2022-11-24T02:53:40.696Z,97.19
2022-11-24T02:56:08.782Z,96.33
2022-11-24T02:58:36.507Z,95.95
2022-11-24T03:01:04.347Z,94.24
2022-11-24T03:03:33.665Z,96.14
2022-11-24T03:06:01.436Z,97.16
2022-11-24T03:08:29.146Z,96.61
2022-11-24T03:10:56.942Z,95.66
2022-11-24T03:13:24.604Z,95.15
2022-11-24T03:15:52.488Z,94.32
2022-11-24T03:18:20.333Z,94.86
2022-11-24T03:20:49.704Z,94.86
2022-11-24T03:23:17.373Z,95.74
2022-11-24T03:25:45.139Z,94.10
2022-11-24T03:28:12.863Z,93.89
2022-11-24T03:30:40.705Z,94.58
2022-11-24T03:33:08.551Z,95.55
2022-11-24T03:35:36.233Z,96.07
2022-11-24T03:38:05.270Z,96.50
2022-11-24T03:40:33.026Z,95.75
2022-11-24T03:43:00.719Z,96.10
2022-11-24T03:48:16.609Z,93.62
2022-11-24T03:50:44.409Z,94.67
2022-11-24T03:53:13.443Z,96.88
2022-11-24T03:55:41.125Z,95.74
2022-11-24T03:58:08.821Z,94.98
2022-11-24T04:00:36.525Z,95.66
2022-11-24T04:03:04.422Z,94.68
2022-11-24T04:05:33.153Z,97.53
2022-11-24T04:08:02.979Z,96.77
2022-11-24T04:10:33.585Z,95.28
2022-11-24T04:13:00.279Z,96.56
2022-11-24T04:15:28.079Z,96.10
2022-11-24T04:17:56.875Z,98.17
2022-11-24T04:20:24.722Z,97.64
2022-11-24T04:22:52.562Z,97.95
2022-11-24T04:25:20.469Z,96.52
2022-11-24T04:27:52.292Z,98.22
2022-11-24T04:30:20.928Z,96.90
2022-11-24T04:32:49.358Z,97.24
2022-11-24T04:35:17.151Z,97.02
2022-11-24T04:37:44.894Z,96.95
2022-11-24T04:40:13.550Z,98.81
2022-11-24T04:42:41.585Z,97.48
2022-11-24T04:45:12.420Z,97.73
2022-11-24T04:47:40.372Z,98.19
2022-11-24T04:50:09.958Z,99.35
2022-11-24T04:52:37.756Z,98.85
2022-11-24T04:55:05.900Z,99.24
2022-11-24T04:57:33.623Z,99.73
2022-11-24T05:00:01.315Z,97.51
2022-11-24T05:02:30.468Z,98.75
2022-11-24T05:04:58.146Z,96.07
2022-11-24T05:07:25.905Z,95.99
2022-11-24T05:10:11.151Z,97.86
2022-11-24T05:12:39.532Z,98.71
2022-11-24T05:15:08.136Z,99.89
2022-11-24T05:17:39.624Z,98.89
2022-11-24T05:20:08.670Z,98.32
2022-11-24T05:22:36.530Z,96.72
2022-11-24T05:25:04.472Z,96.21
2022-11-24T05:27:32.243Z,95.01
2022-11-24T05:29:59.982Z,95.41
2022-11-24T05:32:27.866Z,94.85
2022-11-24T05:34:57.910Z,96.09
2022-11-24T05:37:27.492Z,94.95
2022-11-24T05:39:55.613Z,95.52
2022-11-24T05:42:46.715Z,95.25
2022-11-24T05:45:18.133Z,96.09
2022-11-24T05:47:47.486Z,95.83
2022-11-24T05:50:18.564Z,95.35
2022-11-24T05:52:46.406Z,96.39
2022-11-24T05:55:15.701Z,96.43
2022-11-24T05:57:43.682Z,96.67
2022-11-24T06:00:12.916Z,97.52
2022-11-24T06:02:41.222Z,96.00
2022-11-24T06:05:09.469Z,96.67
2022-11-24T06:07:38.704Z,97.64
2022-11-24T06:10:06.794Z,98.49
2022-11-24T06:12:34.535Z,97.96
2022-11-24T06:15:02.368Z,96.41
2022-11-24T06:17:30.159Z,97.94
2022-11-24T06:19:57.992Z,96.71
2022-11-24T06:22:25.687Z,98.30
2022-11-24T06:24:54.936Z,97.72
2022-11-24T06:27:22.717Z,97.92
2022-11-24T06:29:50.474Z,98.19
2022-11-24T06:32:18.358Z,97.88
2022-11-24T06:34:46.100Z,98.84
2022-11-24T06:37:13.897Z,100.00
2022-11-24T06:39:41.909Z,98.51
2022-11-24T06:42:11.086Z,97.57
2022-11-24T06:44:39.396Z,98.44
2022-11-24T06:47:07.174Z,98.56
2022-11-24T06:49:34.987Z,99.04
2022-11-24T06:52:02.734Z,100.00
2022-11-24T06:54:30.477Z,98.55
2022-11-24T06:56:58.560Z,98.91
2022-11-24T06:59:28.232Z,97.26
2022-11-24T07:01:55.978Z,97.41
2022-11-24T07:04:23.827Z,98.42
2022-11-24T07:06:51.706Z,98.98
2022-11-24T07:09:19.443Z,98.28
2022-11-24T07:11:47.266Z,98.55
2022-11-24T07:14:15.128Z,98.41
2022-11-24T07:16:44.357Z,98.55
2022-11-24T07:19:12.244Z,99.00
2022-11-24T07:21:40.001Z,98.82
2022-11-24T07:24:08.713Z,97.58
2022-11-24T07:26:37.610Z,97.77
2022-11-24T07:29:06.116Z,98.86
2022-11-24T07:31:34.125Z,98.58
2022-11-24T07:34:03.487Z,98.95
2022-11-24T07:36:31.331Z,98.09
2022-11-24T07:38:59.400Z,96.22
2022-11-24T07:41:27.223Z,95.57
2022-11-24T07:43:55.057Z,95.69
2022-11-24T07:46:22.988Z,92.56
2022-11-24T07:48:50.855Z,95.80
2022-11-24T07:51:20.027Z,96.54
2022-11-24T07:53:47.826Z,96.81
2022-11-24T07:56:15.714Z,96.98
2022-11-24T07:58:45.978Z,95.83
2022-11-24T08:01:18.484Z,95.95
2022-11-24T08:03:47.282Z,97.12
2022-11-24T08:06:24.433Z,96.03
2022-11-24T08:08:54.633Z,97.19
2022-11-24T08:11:22.796Z,95.56
2022-11-24T08:13:50.521Z,95.54
2022-11-24T08:16:20.489Z,95.63
2022-11-24T08:18:51.819Z,96.37
2022-11-24T08:21:23.872Z,96.05
2022-11-24T08:23:57.009Z,98.65
2022-11-24T08:26:25.757Z,97.09
2022-11-24T08:28:56.309Z,97.51
2022-11-24T08:31:24.986Z,96.00
2022-11-24T08:33:52.749Z,97.13
2022-11-24T08:36:20.782Z,96.26
2022-11-24T08:38:49.471Z,96.23
2022-11-24T08:41:18.749Z,96.35
2022-11-24T08:43:46.683Z,95.02
2022-11-24T08:46:17.677Z,91.81
2022-11-24T08:48:48.381Z,91.79
2022-11-24T08:51:18.019Z,91.73
2022-11-24T08:53:46.117Z,92.52
2022-11-24T08:56:14.694Z,94.32
2022-11-24T08:58:43.868Z,92.74
2022-11-24T09:01:13.305Z,89.55
2022-11-24T09:03:46.612Z,90.28
2022-11-24T09:06:16.836Z,89.42
2022-11-24T09:08:44.571Z,91.49
2022-11-24T09:11:14.611Z,89.58
2022-11-24T09:13:44.313Z,89.53
2022-11-24T09:16:13.940Z,90.88
2022-11-24T09:18:42.082Z,92.14
2022-11-24T09:21:11.494Z,90.90
2022-11-24T09:23:42.145Z,90.54
2022-11-24T09:26:11.744Z,90.58
2022-11-24T09:28:40.002Z,90.91
2022-11-24T09:31:10.871Z,90.06
2022-11-24T09:33:39.649Z,89.58
2022-11-24T09:36:08.211Z,90.91
2022-11-24T09:38:36.185Z,89.95
2022-11-24T09:41:38.481Z,90.30
2022-11-24T09:44:17.907Z,89.30
2022-11-24T09:47:00.350Z,87.82
2022-11-24T09:49:36.584Z,88.06
2022-11-24T09:52:10.997Z,90.40
2022-11-24T09:54:46.441Z,89.52
2022-11-24T09:57:16.061Z,88.04
2022-11-24T09:59:43.936Z,88.30
2022-11-24T10:02:14.057Z,87.89
2022-11-24T10:04:44.662Z,88.74
2022-11-24T10:07:23.283Z,87.78
2022-11-24T10:10:00.855Z,87.75
2022-11-24T10:12:44.806Z,86.94
2022-11-24T10:15:24.526Z,88.34
2022-11-24T10:18:24.003Z,88.59
2022-11-24T10:21:00.514Z,85.61
2022-11-24T10:23:45.312Z,84.42
2022-11-24T10:26:19.029Z,85.64
2022-11-24T10:28:52.469Z,85.59
2022-11-24T10:31:29.752Z,86.78
2022-11-24T10:34:02.892Z,85.80
2022-11-24T10:36:38.635Z,86.24
2022-11-24T10:39:13.442Z,86.70
2022-11-24T10:41:49.043Z,89.74
2022-11-24T10:44:16.759Z,87.74
2022-11-24T10:46:44.972Z,86.91
2022-11-24T10:49:20.872Z,85.79
2022-11-24T10:52:01.300Z,85.05
2022-11-24T10:54:29.628Z,84.68
2022-11-24T10:56:57.570Z,85.14
2022-11-24T10:59:37.551Z,85.95
2022-11-24T11:02:29.344Z,86.31
2022-11-24T11:04:58.649Z,86.43
2022-11-24T11:07:27.697Z,86.32
2022-11-24T11:10:20.895Z,85.25
2022-11-24T11:12:48.834Z,84.53
2022-11-24T11:15:27.984Z,84.95
2022-11-24T11:17:58.787Z,83.54
2022-11-24T11:20:32.293Z,85.32
2022-11-24T11:23:03.197Z,85.30
2022-11-24T11:25:34.249Z,82.50
2022-11-24T11:28:27.780Z,83.24
2022-11-24T11:31:20.957Z,83.87
2022-11-24T11:34:08.353Z,84.09
2022-11-24T11:36:45.114Z,82.35
2022-11-24T11:39:24.048Z,81.64
2022-11-24T11:41:56.814Z,82.54
2022-11-24T11:44:34.553Z,80.94
2022-11-24T11:47:13.900Z,83.04
2022-11-24T11:49:41.725Z,83.17
2022-11-24T11:52:33.567Z,83.50
2022-11-24T11:55:24.012Z,81.28
2022-11-24T11:57:59.781Z,81.19
2022-11-24T12:00:27.999Z,81.92
2022-11-24T12:03:24.071Z,81.66
2022-11-24T12:06:00.989Z,82.03
2022-11-24T12:09:18.098Z,82.43
2022-11-24T12:11:37.816Z,81.17
2022-11-24T12:14:13.903Z,81.52
2022-11-24T12:16:52.842Z,79.91
2022-11-24T12:19:46.975Z,81.13
2022-11-24T12:22:25.408Z,83.02
2022-11-24T12:25:03.054Z,82.24
2022-11-24T12:27:41.545Z,81.11
2022-11-24T12:30:15.153Z,82.03
2022-11-24T12:33:07.903Z,80.45
2022-11-24T12:35:39.972Z,80.44
2022-11-24T12:38:23.362Z,79.96
2022-11-24T12:41:33.524Z,78.84
2022-11-24T12:43:59.527Z,78.73
2022-11-24T12:46:35.995Z,79.57
2022-11-24T12:49:11.202Z,80.57
2022-11-24T12:51:43.987Z,80.55
2022-11-24T12:54:14.957Z,79.69
2022-11-24T12:56:51.799Z,78.64
2022-11-24T12:59:31.619Z,78.61
2022-11-24T13:02:11.735Z,79.10
2022-11-24T13:04:46.402Z,83.42
2022-11-24T13:07:18.336Z,82.20
2022-11-24T13:10:19.338Z,84.79
2022-11-24T13:13:00.246Z,83.16
2022-11-24T13:15:45.664Z,83.95
2022-11-24T13:18:44.811Z,84.58
2022-11-24T13:21:51.052Z,84.71
2022-11-24T13:24:25.410Z,83.42
2022-11-24T13:26:55.357Z,84.20
2022-11-24T13:29:38.194Z,82.19
2022-11-24T13:32:51.902Z,82.79
2022-11-24T13:35:19.694Z,82.76
2022-11-24T13:37:53.099Z,82.19
2022-11-24T13:40:54.363Z,81.87
2022-11-24T13:43:30.345Z,80.57
2022-11-24T13:45:59.589Z,80.57
2022-11-24T13:49:01.327Z,80.65
2022-11-24T13:51:29.273Z,81.51
2022-11-24T13:54:00.903Z,81.01
2022-11-24T13:56:31.491Z,80.53
2022-11-24T13:59:02.285Z,81.72
2022-11-24T14:01:33.209Z,81.26
2022-11-24T14:07:06.931Z,81.96
2022-11-24T14:09:38.566Z,81.91
2022-11-24T14:12:14.275Z,80.91
2022-11-24T14:14:42.855Z,83.83
2022-11-24T14:17:23.073Z,82.13
2022-11-24T14:19:52.989Z,82.31
2022-11-24T14:22:23.108Z,80.79
2022-11-24T14:24:56.266Z,80.60
2022-11-24T14:27:30.012Z,80.50
2022-11-24T14:29:59.170Z,81.53
2022-11-24T14:32:28.731Z,81.71
2022-11-24T14:34:57.006Z,81.49
2022-11-24T14:37:25.135Z,80.35
2022-11-24T14:39:52.896Z,81.01
2022-11-24T14:42:23.047Z,81.23
2022-11-24T14:44:55.652Z,82.96
2022-11-24T14:47:31.265Z,82.78
2022-11-24T14:50:11.402Z,82.00
2022-11-24T14:52:45.950Z,81.01
2022-11-24T14:55:27.850Z,80.87
2022-11-24T14:57:55.751Z,82.29
2022-11-24T15:00:28.616Z,80.97
2022-11-24T15:03:08.530Z,83.07
2022-11-24T15:08:34.825Z,84.01
2022-11-24T15:11:04.767Z,84.12
2022-11-24T15:13:37.043Z,83.17
2022-11-24T15:16:08.009Z,82.91
2022-11-24T15:18:42.803Z,84.05
2022-11-24T15:21:17.272Z,83.15
2022-11-24T15:24:05.672Z,83.16
2022-11-24T15:26:38.535Z,82.46
2022-11-24T15:29:09.184Z,85.38
2022-11-24T15:31:37.293Z,87.91
2022-11-24T15:34:04.956Z,88.26
2022-11-24T15:36:33.422Z,87.98
2022-11-24T15:39:02.386Z,86.01
2022-11-24T15:41:31.911Z,84.21
2022-11-24T15:43:59.952Z,83.47
2022-11-24T15:46:28.282Z,87.83
2022-11-24T15:48:56.107Z,89.36
2022-11-24T15:51:27.133Z,88.78
2022-11-24T15:54:00.720Z,87.72
2022-11-24T15:56:33.308Z,86.98
2022-11-24T15:59:01.394Z,85.08
2022-11-24T16:01:34.411Z,88.02
2022-11-24T16:04:02.784Z,91.74
2022-11-24T16:06:30.444Z,91.94
2022-11-24T16:08:58.958Z,92.95
2022-11-24T16:11:27.031Z,90.00
2022-11-24T16:13:56.160Z,89.09
2022-11-24T16:16:25.135Z,90.24
2022-11-24T16:18:53.108Z,92.46
2022-11-24T16:21:20.814Z,92.99
2022-11-24T16:23:48.743Z,89.79
2022-11-24T16:26:16.405Z,88.14
2022-11-24T16:28:45.660Z,92.14
2022-11-24T16:31:16.209Z,90.93
2022-11-24T16:33:44.779Z,91.36
2022-11-24T16:36:12.522Z,89.86
2022-11-24T16:38:40.111Z,89.50
2022-11-24T16:41:10.324Z,88.68
2022-11-24T16:43:38.314Z,87.83
2022-11-24T16:46:19.502Z,86.42
2022-11-24T16:48:48.643Z,87.41
2022-11-24T16:51:17.111Z,87.56
2022-11-24T16:53:44.913Z,89.47
2022-11-24T16:56:13.230Z,88.13
2022-11-24T16:58:42.071Z,88.98
2022-11-24T17:01:12.153Z,87.91
2022-11-24T17:03:41.577Z,86.57
2022-11-24T17:06:11.768Z,85.34
2022-11-24T17:08:41.255Z,86.71
2022-11-24T17:11:09.348Z,89.03
2022-11-24T17:13:37.146Z,89.83
2022-11-24T17:16:06.401Z,89.30
2022-11-24T17:18:35.134Z,88.51
2022-11-24T17:21:09.487Z,89.56
2022-11-24T17:23:38.003Z,89.13
2022-11-24T17:26:07.351Z,89.37
2022-11-24T17:28:35.754Z,90.29
2022-11-24T17:31:07.435Z,88.55
2022-11-24T17:33:35.278Z,89.15
2022-11-24T17:36:05.388Z,87.70
2022-11-24T17:38:32.986Z,89.34
2022-11-24T17:41:00.570Z,90.26
2022-11-24T17:43:28.196Z,91.10
2022-11-24T17:45:56.437Z,88.78
2022-11-24T17:48:24.617Z,88.87
2022-11-24T17:50:59.797Z,89.27
2022-11-24T17:53:28.902Z,89.50
2022-11-24T17:56:00.108Z,88.94
2022-11-24T17:58:28.268Z,89.60
2022-11-24T18:00:56.017Z,89.87
2022-11-24T18:03:25.543Z,89.25
2022-11-24T18:05:53.147Z,88.77
2022-11-24T18:08:20.768Z,89.19
2022-11-24T18:10:49.737Z,90.56
2022-11-24T18:13:40.703Z,91.25
2022-11-24T18:16:08.573Z,89.74
2022-11-24T18:18:40.147Z,89.64
2022-11-24T18:21:12.783Z,88.23
2022-11-24T18:23:40.779Z,92.41
2022-11-24T18:26:12.049Z,91.50
2022-11-24T18:28:39.663Z,91.41
2022-11-24T18:31:10.066Z,90.67
2022-11-24T18:33:38.324Z,90.82
2022-11-24T18:36:07.332Z,90.47
2022-11-24T18:38:37.171Z,90.52
2022-11-24T18:41:06.516Z,91.23
2022-11-24T18:43:38.052Z,94.81
2022-11-24T18:46:07.235Z,94.08
2022-11-24T18:48:35.308Z,96.16
2022-11-24T18:51:03.091Z,95.90
2022-11-24T18:53:31.043Z,95.23
2022-11-24T18:55:59.732Z,94.21
2022-11-24T18:58:29.898Z,93.52
2022-11-24T19:01:09.189Z,93.80
2022-11-24T19:03:43.529Z,91.69
2022-11-24T19:06:16.947Z,92.87
2022-11-24T19:08:44.997Z,94.90
2022-11-24T19:11:18.415Z,94.72
2022-11-24T19:13:47.535Z,95.12
2022-11-24T19:16:17.032Z,95.58
2022-11-24T19:18:48.942Z,95.33
2022-11-24T19:21:19.769Z,94.49
2022-11-24T19:23:47.377Z,93.81
2022-11-24T19:26:14.971Z,93.99
2022-11-24T19:28:42.794Z,92.52
2022-11-24T19:31:14.274Z,92.55
2022-11-24T19:33:43.585Z,94.11
2022-11-24T19:36:13.375Z,93.04
2022-11-24T19:38:41.875Z,92.68
2022-11-24T19:41:11.909Z,93.14
2022-11-24T19:43:40.137Z,93.55
2022-11-24T19:46:09.838Z,94.11
2022-11-24T19:48:39.385Z,94.45
2022-11-24T19:51:11.220Z,95.83
2022-11-24T19:53:38.912Z,96.75
2022-11-24T19:56:07.941Z,95.01
2022-11-24T19:58:36.446Z,93.78
2022-11-24T20:01:08.141Z,94.61
2022-11-24T20:03:36.273Z,94.64
2022-11-24T20:06:04.280Z,96.72
2022-11-24T20:08:35.054Z,95.65
2022-11-24T20:11:03.807Z,96.58
2022-11-24T20:13:31.558Z,96.64
2022-11-24T20:16:04.548Z,96.18
2022-11-24T20:18:36.354Z,93.92
2022-11-24T20:21:08.861Z,94.20
2022-11-24T20:23:38.384Z,92.47
2022-11-24T20:26:06.627Z,91.75
2022-11-24T20:28:34.366Z,92.31
2022-11-24T20:31:02.813Z,90.89
2022-11-24T20:33:30.837Z,90.79
2022-11-24T20:36:05.236Z,89.29
2022-11-24T20:38:34.448Z,90.07
2022-11-24T20:41:09.026Z,90.17
2022-11-24T20:43:37.550Z,89.34
2022-11-24T20:46:06.218Z,87.50
2022-11-24T20:48:35.092Z,89.80
2022-11-24T20:51:06.506Z,87.36
2022-11-24T20:53:34.623Z,89.42
2022-11-24T20:56:06.396Z,87.98
2022-11-24T20:58:34.504Z,88.18
2022-11-24T21:01:05.076Z,89.36
2022-11-24T21:03:32.749Z,89.05
2022-11-24T21:06:00.420Z,87.85
2022-11-24T21:08:28.040Z,87.97
2022-11-24T21:10:56.216Z,88.42
2022-11-24T21:13:26.423Z,92.04
2022-11-24T21:15:55.049Z,89.70
2022-11-24T21:18:23.085Z,87.87
2022-11-24T21:20:50.723Z,87.32
2022-11-24T21:23:20.462Z,90.19
2022-11-24T21:25:48.069Z,89.20
2022-11-24T21:28:16.148Z,89.08
2022-11-24T21:30:45.088Z,91.46
2022-11-24T21:33:12.700Z,93.12
2022-11-24T21:35:40.302Z,92.41
2022-11-24T21:38:07.913Z,92.31
2022-11-24T21:40:35.952Z,92.72
2022-11-24T21:43:03.620Z,93.70
2022-11-24T21:45:31.627Z,93.43
2022-11-24T21:48:01.674Z,92.19
2022-11-24T21:50:29.250Z,93.18
2022-11-24T21:53:00.652Z,92.88
2022-11-24T21:55:31.012Z,94.92
2022-11-24T21:57:58.689Z,95.71
2022-11-24T22:00:26.370Z,96.71
2022-11-24T22:02:55.636Z,96.74
2022-11-24T22:05:24.909Z,97.29
2022-11-24T22:07:52.837Z,98.05
2022-11-24T22:10:20.451Z,97.71
2022-11-24T22:12:48.057Z,98.32
2022-11-24T22:15:15.735Z,100.00
2022-11-24T22:17:43.404Z,98.28
2022-11-24T22:20:11.655Z,95.88
2022-11-24T22:22:40.570Z,96.23
2022-11-24T22:25:09.126Z,95.79
2022-11-24T22:27:36.688Z,96.36
2022-11-24T22:30:05.935Z,94.12
2022-11-24T22:32:33.553Z,93.61
2022-11-24T22:35:01.381Z,94.66
2022-11-24T22:37:29.095Z,91.40
2022-11-24T22:39:58.028Z,90.89
2022-11-24T22:42:25.656Z,90.37
2022-11-24T22:44:53.441Z,92.85
2022-11-24T22:47:21.048Z,92.38
2022-11-24T22:49:48.618Z,91.50
2022-11-24T22:52:16.210Z,90.42
2022-11-24T22:54:43.790Z,91.38
2022-11-24T22:57:12.706Z,92.08
2022-11-24T22:59:40.294Z,91.79
2022-11-24T23:02:07.868Z,92.39
2022-11-24T23:04:35.780Z,93.15
2022-11-24T23:07:03.447Z,93.68
2022-11-24T23:09:31.025Z,91.43
2022-11-24T23:11:58.631Z,90.95
2022-11-24T23:14:28.731Z,90.13
2022-11-24T23:16:56.311Z,91.42
2022-11-24T23:19:24.059Z,91.48
2022-11-24T23:21:51.633Z,92.12
2022-11-24T23:24:19.272Z,90.89
2022-11-24T23:26:46.872Z,93.64
2022-11-24T23:29:14.599Z,92.70
2022-11-24T23:31:43.589Z,92.52
2022-11-24T23:34:11.305Z,92.69
2022-11-24T23:36:38.915Z,92.26
2022-11-24T23:39:08.825Z,91.85
2022-11-24T23:41:36.676Z,92.02
2022-11-24T23:44:04.778Z,91.53
2022-11-24T23:46:32.636Z,91.83
2022-11-24T23:49:01.587Z,92.22
2022-11-24T23:51:31.008Z,92.26
2022-11-24T23:53:59.090Z,93.34
2022-11-24T23:56:28.724Z,92.07
2022-11-24T23:58:56.349Z,92.58
